Time;durP1;ratioP1;P1;durP2;ratioP2;P2;SDS_P1;SDS_P2;PMS_P1;PMS_P2;Temp;Humidity;BMP_temperature;BMP_pressure;BME280_temperature;BME280_humidity;BME280_pressure;Samples;Min_cycle;Max_cycle;Signal;HPM_P1;HPM_P2
2022/03/06 00:00:41;;;;;;;19.30;12.17;;;0.20;99.90;;;;;;4973433;28;20193;-67
2022/03/06 00:03:07;;;;;;;16.40;11.63;;;0.20;99.90;;;;;;4973660;28;20198;-67
2022/03/06 00:05:33;;;;;;;16.73;11.00;;;0.20;99.90;;;;;;4972305;28;20458;-67
2022/03/06 00:07:59;;;;;;;24.23;12.10;;;0.20;99.90;;;;;;4973113;28;20439;-67
2022/03/06 00:10:26;;;;;;;16.07;12.03;;;0.20;99.90;;;;;;4973033;28;20190;-67
2022/03/06 00:12:52;;;;;;;17.50;10.90;;;0.20;99.90;;;;;;4973289;28;20526;-67
2022/03/06 00:15:18;;;;;;;16.13;10.97;;;0.20;99.90;;;;;;4972364;28;20542;-67
2022/03/06 00:17:44;;;;;;;14.70;10.40;;;0.20;99.90;;;;;;4973321;28;20183;-67
2022/03/06 00:20:10;;;;;;;16.90;11.33;;;0.10;99.90;;;;;;4972400;28;20439;-67
2022/03/06 00:22:36;;;;;;;20.03;11.60;;;0.00;99.90;;;;;;4972982;28;20188;-67
2022/03/06 00:25:03;;;;;;;19.63;11.50;;;0.00;99.90;;;;;;4972276;28;20873;-66
2022/03/06 00:27:29;;;;;;;17.60;11.50;;;-0.10;99.90;;;;;;4972798;28;20490;-65
2022/03/06 00:29:54;;;;;;;17.40;10.43;;;-0.10;99.90;;;;;;4972376;28;21128;-67
2022/03/06 00:32:20;;;;;;;21.10;12.47;;;-0.10;99.90;;;;;;4972853;28;20630;-67
2022/03/06 00:34:48;;;;;;;18.27;12.13;;;-0.10;99.90;;;;;;4972875;28;20184;-67
2022/03/06 00:37:14;;;;;;;17.63;11.97;;;-0.10;99.90;;;;;;4971990;28;20192;-67
2022/03/06 00:39:40;;;;;;;20.47;11.63;;;-0.10;99.90;;;;;;4972739;28;20810;-67
2022/03/06 00:42:07;;;;;;;18.77;11.57;;;-0.20;99.90;;;;;;4972597;28;20456;-66
2022/03/06 00:44:32;;;;;;;19.87;11.27;;;-0.30;99.90;;;;;;4972810;28;20184;-66
2022/03/06 00:46:58;;;;;;;17.43;11.73;;;-0.30;99.90;;;;;;4972238;28;20466;-67
2022/03/06 00:49:23;;;;;;;23.60;12.80;;;-0.30;99.90;;;;;;4972840;28;20642;-66
2022/03/06 00:51:49;;;;;;;15.47;9.90;;;-0.30;99.90;;;;;;4972421;28;20267;-67
2022/03/06 00:54:14;;;;;;;15.87;11.93;;;-0.40;99.90;;;;;;4972751;28;20188;-66
2022/03/06 00:56:40;;;;;;;16.13;10.40;;;-0.40;99.90;;;;;;4974825;28;20215;-67
2022/03/06 00:59:06;;;;;;;18.97;13.40;;;-0.50;99.90;;;;;;4976488;28;20184;-66
2022/03/06 01:01:31;;;;;;;18.80;12.33;;;-0.50;99.90;;;;;;4976460;28;20211;-67
2022/03/06 01:03:57;;;;;;;18.60;11.70;;;-0.50;99.90;;;;;;4976320;28;20184;-67
2022/03/06 01:06:22;;;;;;;24.60;12.60;;;-0.40;99.90;;;;;;4975627;28;20207;-67
2022/03/06 01:08:48;;;;;;;17.17;12.23;;;-0.40;99.90;;;;;;4976506;28;20207;-66
2022/03/06 01:11:13;;;;;;;21.83;12.50;;;-0.40;99.90;;;;;;4976059;28;20716;-66
2022/03/06 01:13:39;;;;;;;18.17;11.87;;;-0.50;99.90;;;;;;4976206;28;20650;-67
2022/03/06 01:16:05;;;;;;;20.23;12.80;;;-0.50;99.90;;;;;;4975255;28;20235;-67
2022/03/06 01:18:30;;;;;;;23.13;14.00;;;-0.60;99.90;;;;;;4976168;28;20565;-67
2022/03/06 01:20:56;;;;;;;27.80;16.27;;;-0.70;99.90;;;;;;4976165;28;20681;-66
2022/03/06 01:23:21;;;;;;;17.03;12.37;;;-0.70;99.90;;;;;;4975938;28;20195;-67
2022/03/06 01:25:47;;;;;;;18.50;12.73;;;-0.70;99.90;;;;;;4975185;28;20662;-66
2022/03/06 01:28:12;;;;;;;17.60;11.20;;;-0.70;99.90;;;;;;4975879;28;20569;-66
2022/03/06 01:30:38;;;;;;;17.13;11.40;;;-0.70;99.90;;;;;;4975924;28;20245;-67
2022/03/06 01:33:03;;;;;;;21.70;11.83;;;-0.70;99.90;;;;;;4975952;28;20208;-67
2022/03/06 01:35:29;;;;;;;17.37;11.50;;;-0.70;99.90;;;;;;4974943;28;20212;-67
2022/03/06 01:37:55;;;;;;;18.50;13.03;;;-0.60;99.90;;;;;;4975692;28;20181;-67
2022/03/06 01:40:20;;;;;;;18.20;12.60;;;-0.60;99.90;;;;;;4975907;28;20180;-67
2022/03/06 01:42:48;;;;;;;18.47;10.90;;;-0.70;99.90;;;;;;4975774;28;20183;-66
2022/03/06 01:45:15;;;;;;;15.63;11.27;;;-0.70;99.90;;;;;;4974799;28;20211;-66
2022/03/06 01:47:44;;;;;;;14.90;10.70;;;-0.70;99.90;;;;;;4975563;28;20506;-66
2022/03/06 01:50:16;;;;;;;18.43;10.53;;;-0.70;99.90;;;;;;4975223;28;20436;-66
2022/03/06 01:52:43;;;;;;;17.47;11.30;;;-0.70;99.90;;;;;;4975489;28;20440;-66
2022/03/06 01:55:09;;;;;;;16.10;10.80;;;-0.70;99.90;;;;;;4974643;28;20522;-66
2022/03/06 01:57:35;;;;;;;17.50;11.97;;;-0.80;99.90;;;;;;4975412;28;20435;-66
2022/03/06 02:00:03;;;;;;;16.10;10.43;;;-0.80;99.90;;;;;;4975346;28;20446;-66
2022/03/06 02:02:29;;;;;;;18.90;11.60;;;-0.80;99.90;;;;;;4975442;28;20177;-67
2022/03/06 02:04:55;;;;;;;17.77;11.33;;;-0.80;99.90;;;;;;4974680;28;20828;-67
2022/03/06 02:07:20;;;;;;;16.83;10.80;;;-0.80;99.90;;;;;;4973469;28;20172;-66
2022/03/06 02:09:46;;;;;;;20.53;11.90;;;-0.80;99.90;;;;;;4975007;28;20638;-67
2022/03/06 02:12:23;;;;;;;21.80;12.77;;;-0.80;99.90;;;;;;4974962;28;20231;-66
2022/03/06 02:14:55;;;;;;;17.73;11.90;;;-0.70;99.90;;;;;;4974962;28;20762;-67
2022/03/06 02:17:22;;;;;;;18.60;12.47;;;-0.70;99.90;;;;;;4974267;28;20959;-66
2022/03/06 02:19:51;;;;;;;18.07;11.37;;;-0.70;99.90;;;;;;4975068;28;20944;-66
2022/03/06 02:22:17;;;;;;;15.67;11.13;;;-0.80;99.90;;;;;;4974856;28;20431;-66
2022/03/06 02:24:43;;;;;;;19.03;12.40;;;-0.80;99.90;;;;;;4975034;28;20502;-66
2022/03/06 02:27:08;;;;;;;18.50;11.50;;;-0.80;99.90;;;;;;4974359;28;21001;-66
2022/03/06 02:29:34;;;;;;;20.70;13.07;;;-0.80;99.90;;;;;;4974879;28;20258;-67
2022/03/06 02:32:00;;;;;;;18.20;10.30;;;-0.90;99.90;;;;;;4974905;28;20204;-67
2022/03/06 02:34:28;;;;;;;18.27;12.60;;;-1.00;99.90;;;;;;4974914;28;20585;-67
2022/03/06 02:36:54;;;;;;;18.37;11.90;;;-1.00;99.90;;;;;;4973694;28;20879;-67
2022/03/06 02:39:24;;;;;;;20.30;13.83;;;-1.00;99.90;;;;;;4974781;28;20447;-67
2022/03/06 02:41:50;;;;;;;22.03;11.13;;;-1.10;99.90;;;;;;4974664;28;20238;-67
2022/03/06 02:44:15;;;;;;;19.53;11.40;;;-1.10;99.90;;;;;;4973339;28;20431;-66
2022/03/06 02:46:44;;;;;;;19.20;11.60;;;-1.10;99.90;;;;;;4973939;28;20200;-67
2022/03/06 02:49:10;;;;;;;19.57;12.63;;;-1.10;99.90;;;;;;4974305;28;20239;-67
2022/03/06 02:51:36;;;;;;;18.70;11.57;;;-1.10;99.90;;;;;;4974583;28;20926;-66
2022/03/06 02:54:01;;;;;;;19.40;11.53;;;-1.10;99.90;;;;;;4974503;28;20172;-66
2022/03/06 02:56:28;;;;;;;18.33;11.10;;;-1.10;99.90;;;;;;4973730;28;20448;-67
2022/03/06 02:58:53;;;;;;;21.00;11.43;;;-1.10;99.90;;;;;;4972910;28;20623;-67
2022/03/06 03:01:20;;;;;;;20.60;11.03;;;-1.00;99.90;;;;;;4974334;28;20463;-67
2022/03/06 03:03:46;;;;;;;17.33;11.20;;;-1.00;99.90;;;;;;4974321;28;20665;-67
2022/03/06 03:06:12;;;;;;;20.50;12.63;;;-1.00;99.90;;;;;;4973516;28;20454;-66
2022/03/06 03:08:37;;;;;;;18.97;11.90;;;-1.00;99.90;;;;;;4974113;28;20183;-67
2022/03/06 03:11:03;;;;;;;19.50;12.50;;;-1.00;99.90;;;;;;4973867;28;20196;-67
2022/03/06 03:13:28;;;;;;;17.73;11.70;;;-1.00;99.90;;;;;;4974160;28;20279;-66
2022/03/06 03:15:54;;;;;;;21.73;11.23;;;-1.10;99.90;;;;;;4973337;28;20204;-66
2022/03/06 03:18:20;;;;;;;17.83;12.27;;;-1.10;99.90;;;;;;4973817;28;20534;-66
2022/03/06 03:20:45;;;;;;;16.97;10.63;;;-1.20;99.90;;;;;;4973966;28;20439;-67
2022/03/06 03:23:11;;;;;;;19.20;12.00;;;-1.20;99.90;;;;;;4974055;28;20177;-67
2022/03/06 03:25:36;;;;;;;17.13;11.63;;;-1.30;99.90;;;;;;4973424;28;20213;-66
2022/03/06 03:28:02;;;;;;;18.27;11.37;;;-1.40;99.90;;;;;;4973916;28;20192;-67
2022/03/06 03:30:28;;;;;;;16.43;11.33;;;-1.40;99.90;;;;;;4973828;28;20184;-66
2022/03/06 03:32:53;;;;;;;20.90;11.73;;;-1.40;99.90;;;;;;4973394;28;20184;-67
2022/03/06 03:35:19;;;;;;;18.10;11.37;;;-1.40;99.90;;;;;;4972822;28;20207;-67
2022/03/06 03:37:44;;;;;;;18.67;10.63;;;-1.40;99.90;;;;;;4973632;28;20662;-67
2022/03/06 03:40:10;;;;;;;19.20;11.30;;;-1.30;99.90;;;;;;4973634;28;20184;-66
2022/03/06 03:42:36;;;;;;;16.90;11.60;;;-1.30;99.90;;;;;;4973569;28;20195;-66
2022/03/06 03:45:03;;;;;;;17.77;10.50;;;-1.30;99.90;;;;;;4972826;28;20463;-66
2022/03/06 03:47:29;;;;;;;15.27;10.83;;;-1.40;99.90;;;;;;4973383;28;20176;-66
2022/03/06 03:49:54;;;;;;;18.80;11.87;;;-1.40;99.90;;;;;;4973579;28;20427;-66
2022/03/06 03:52:20;;;;;;;20.10;11.87;;;-1.30;99.90;;;;;;4973681;28;20227;-67
2022/03/06 03:54:46;;;;;;;18.53;13.23;;;-1.40;99.90;;;;;;4973323;28;20180;-66
2022/03/06 03:57:13;;;;;;;17.40;10.23;;;-1.40;99.90;;;;;;4972652;28;20227;-66
2022/03/06 03:59:39;;;;;;;19.90;13.10;;;-1.40;99.90;;;;;;4973350;28;20180;-67
2022/03/06 04:02:04;;;;;;;19.07;11.53;;;-1.40;99.90;;;;;;4973132;28;20438;-67
2022/03/06 04:04:30;;;;;;;16.67;11.50;;;-1.50;99.90;;;;;;4972808;28;20439;-66
2022/03/06 04:06:57;;;;;;;18.90;11.20;;;-1.50;99.90;;;;;;4972356;28;20203;-67
2022/03/06 04:09:22;;;;;;;17.90;11.40;;;-1.50;99.90;;;;;;4973092;28;20180;-67
2022/03/06 04:11:48;;;;;;;19.13;11.63;;;-1.50;99.90;;;;;;4973055;28;20474;-67
2022/03/06 04:14:14;;;;;;;19.57;11.43;;;-1.50;99.90;;;;;;4973081;28;20180;-67
2022/03/06 04:16:39;;;;;;;19.50;12.13;;;-1.60;99.90;;;;;;4972151;28;20200;-67
2022/03/06 04:19:05;;;;;;;19.70;12.23;;;-1.60;99.90;;;;;;4973014;28;20541;-67
2022/03/06 04:21:31;;;;;;;16.87;11.57;;;-1.70;99.90;;;;;;4972997;28;20912;-67
2022/03/06 04:23:56;;;;;;;16.73;11.97;;;-1.70;99.90;;;;;;4972794;28;20459;-67
2022/03/06 04:26:22;;;;;;;23.30;13.13;;;-1.70;99.90;;;;;;4972234;28;20241;-66
2022/03/06 04:28:47;;;;;;;18.73;11.50;;;-1.70;99.90;;;;;;4972993;28;20215;-67
2022/03/06 04:31:13;;;;;;;20.07;12.53;;;-1.60;99.90;;;;;;4975286;28;20199;-67
2022/03/06 04:33:38;;;;;;;14.50;9.83;;;-1.70;99.90;;;;;;4975568;28;20264;-66
2022/03/06 04:36:04;;;;;;;18.50;12.40;;;-1.70;99.90;;;;;;4975975;28;20208;-67
2022/03/06 04:38:30;;;;;;;19.47;10.77;;;-1.70;99.90;;;;;;4977179;28;20177;-67
2022/03/06 04:40:55;;;;;;;21.73;11.83;;;-1.70;99.90;;;;;;4976855;28;20180;-67
2022/03/06 04:43:24;;;;;;;20.50;11.70;;;-1.70;99.90;;;;;;4976868;28;20550;-67
2022/03/06 04:45:49;;;;;;;19.80;12.70;;;-1.70;99.90;;;;;;4975715;28;20220;-67
2022/03/06 04:48:15;;;;;;;19.50;10.97;;;-1.70;99.90;;;;;;4976668;28;20443;-66
2022/03/06 04:50:40;;;;;;;18.83;11.50;;;-1.70;99.90;;;;;;4976672;28;20196;-67
2022/03/06 04:53:06;;;;;;;23.60;13.10;;;-1.60;99.90;;;;;;4976766;28;20187;-67
2022/03/06 04:55:31;;;;;;;17.57;12.13;;;-1.60;99.90;;;;;;4975769;28;20204;-67
2022/03/06 04:57:57;;;;;;;16.83;10.20;;;-1.60;99.90;;;;;;4976594;28;20255;-67
2022/03/06 05:00:22;;;;;;;17.90;12.07;;;-1.60;99.90;;;;;;4976664;28;20180;-67
2022/03/06 05:02:48;;;;;;;18.23;10.90;;;-1.60;99.90;;;;;;4976541;28;20177;-68
2022/03/06 05:05:13;;;;;;;16.77;11.03;;;-1.70;99.90;;;;;;4975799;28;20192;-67
2022/03/06 05:07:39;;;;;;;20.57;13.93;;;-1.70;99.90;;;;;;4976395;28;20238;-67
2022/03/06 05:10:11;;;;;;;17.30;12.07;;;-1.70;99.90;;;;;;4976308;28;20638;-66
2022/03/06 05:12:41;;;;;;;17.00;10.70;;;-1.70;99.90;;;;;;4976241;28;20212;-67
2022/03/06 05:15:08;;;;;;;16.97;10.50;;;-1.70;99.90;;;;;;4975477;28;20444;-67
2022/03/06 05:17:34;;;;;;;19.00;11.07;;;-1.70;99.90;;;;;;4976201;28;20441;-66
2022/03/06 05:20:00;;;;;;;18.93;12.13;;;-1.60;99.90;;;;;;4976073;28;20510;-67
2022/03/06 05:22:26;;;;;;;20.77;11.80;;;-1.70;99.90;;;;;;4976326;28;20434;-67
2022/03/06 05:24:51;;;;;;;18.60;11.90;;;-1.70;99.90;;;;;;4975855;28;20458;-67
2022/03/06 05:27:17;;;;;;;18.40;11.70;;;-1.80;99.90;;;;;;4975361;28;20631;-67
2022/03/06 05:29:43;;;;;;;17.27;10.80;;;-1.80;99.90;;;;;;4976150;28;20254;-67
2022/03/06 05:32:08;;;;;;;18.10;12.03;;;-1.80;99.90;;;;;;4975370;28;20291;-66
2022/03/06 05:34:34;;;;;;;17.27;10.87;;;-1.80;99.90;;;;;;4975918;28;20177;-69
2022/03/06 05:36:59;;;;;;;19.07;11.27;;;-1.80;99.90;;;;;;4974985;28;20663;-68
2022/03/06 05:39:25;;;;;;;15.07;11.33;;;-1.80;99.90;;;;;;4975987;28;20208;-68
2022/03/06 05:41:50;;;;;;;20.57;12.07;;;-1.70;99.90;;;;;;4975720;28;20263;-68
2022/03/06 05:44:16;;;;;;;19.53;11.97;;;-1.60;99.90;;;;;;4975608;28;20188;-68
2022/03/06 05:46:42;;;;;;;20.17;12.77;;;-1.60;99.90;;;;;;4975163;28;20774;-68
2022/03/06 05:49:12;;;;;;;16.60;11.30;;;-1.60;99.90;;;;;;4975560;28;20188;-68
2022/03/06 05:51:39;;;;;;;20.37;11.53;;;-1.50;99.90;;;;;;4975396;28;20199;-68
2022/03/06 05:54:06;;;;;;;15.50;11.07;;;-1.40;99.90;;;;;;4975647;28;20446;-68
2022/03/06 05:56:32;;;;;;;18.37;11.77;;;-1.40;99.90;;;;;;4974940;28;20455;-65
2022/03/06 05:58:58;;;;;;;16.37;10.77;;;-1.40;99.90;;;;;;4975368;28;20474;-68
2022/03/06 06:01:24;;;;;;;16.00;10.77;;;-1.40;99.90;;;;;;4975491;28;20251;-69
2022/03/06 06:03:49;;;;;;;17.30;12.43;;;-1.40;99.90;;;;;;4975361;28;20211;-67
2022/03/06 06:06:15;;;;;;;17.53;11.03;;;-1.40;99.90;;;;;;4974928;28;20648;-67
2022/03/06 06:08:41;;;;;;;20.43;11.80;;;-1.40;99.90;;;;;;4975399;28;20215;-67
2022/03/06 06:11:07;;;;;;;17.27;11.97;;;-1.40;99.90;;;;;;4975393;28;20677;-67
2022/03/06 06:13:33;;;;;;;16.70;13.20;;;-1.40;99.90;;;;;;4975098;28;20612;-66
2022/03/06 06:15:59;;;;;;;23.43;13.70;;;-1.30;99.90;;;;;;4974326;28;20538;-67
2022/03/06 06:18:27;;;;;;;17.90;12.03;;;-1.20;99.90;;;;;;4975165;28;20510;-66
2022/03/06 06:20:53;;;;;;;20.40;13.20;;;-1.20;99.90;;;;;;4975249;28;20183;-67
2022/03/06 06:23:19;;;;;;;21.00;12.40;;;-1.20;99.90;;;;;;4975107;28;20443;-66
2022/03/06 06:25:44;;;;;;;20.87;12.87;;;-1.20;99.90;;;;;;4974240;28;21014;-67
2022/03/06 06:28:10;;;;;;;17.47;13.03;;;-1.20;99.90;;;;;;4974909;28;20185;-66
2022/03/06 06:30:36;;;;;;;20.33;11.83;;;-1.20;99.90;;;;;;4974964;28;20184;-67
2022/03/06 06:33:01;;;;;;;21.10;12.93;;;-1.00;99.90;;;;;;4975209;28;20180;-66
2022/03/06 06:35:27;;;;;;;20.87;13.83;;;-0.90;99.90;;;;;;4974141;28;20204;-66
2022/03/06 06:37:52;;;;;;;22.63;14.93;;;-0.70;99.90;;;;;;4974661;28;20176;-66
2022/03/06 06:40:18;;;;;;;24.80;16.90;;;-0.60;99.90;;;;;;4974761;28;20222;-66
2022/03/06 06:42:44;;;;;;;27.43;18.63;;;-0.40;99.90;;;;;;4974546;28;20176;-66
2022/03/06 06:45:09;;;;;;;21.53;14.53;;;-0.30;99.90;;;;;;4974008;28;20204;-67
2022/03/06 06:47:35;;;;;;;20.53;13.97;;;-0.20;99.90;;;;;;4974741;28;20215;-67
2022/03/06 06:50:01;;;;;;;19.83;13.80;;;-0.20;99.90;;;;;;4974414;28;20239;-67
2022/03/06 06:52:26;;;;;;;16.73;12.33;;;0.10;99.90;;;;;;4974207;28;20732;-67
2022/03/06 06:54:52;;;;;;;16.53;12.13;;;0.20;99.90;;;;;;4974017;28;20622;-66
2022/03/06 06:57:17;;;;;;;19.90;13.70;;;0.40;99.90;;;;;;4973647;28;20607;-67
2022/03/06 06:59:43;;;;;;;17.10;12.23;;;0.60;99.90;;;;;;4974406;28;20180;-67
2022/03/06 07:02:08;;;;;;;20.80;12.97;;;0.80;99.90;;;;;;4974047;28;20650;-67
2022/03/06 07:04:34;;;;;;;20.80;13.13;;;1.00;99.90;;;;;;4973985;28;20176;-67
2022/03/06 07:06:59;;;;;;;22.73;12.67;;;1.10;99.90;;;;;;4973263;28;20176;-67
2022/03/06 07:09:25;;;;;;;24.13;14.10;;;1.40;99.90;;;;;;4974116;28;20191;-67
2022/03/06 07:11:50;;;;;;;19.17;12.17;;;1.60;99.90;;;;;;4973894;28;20192;-66
2022/03/06 07:14:16;;;;;;;20.73;14.27;;;1.80;99.90;;;;;;4974064;28;20180;-67
2022/03/06 07:16:43;;;;;;;20.70;13.30;;;1.90;99.90;;;;;;4973211;28;20200;-67
2022/03/06 07:19:08;;;;;;;19.53;12.90;;;1.90;99.90;;;;;;4973651;28;20181;-66
2022/03/06 07:21:34;;;;;;;18.30;14.27;;;2.00;99.90;;;;;;4973945;28;21146;-67
2022/03/06 07:23:59;;;;;;;21.70;13.37;;;2.20;99.90;;;;;;4973972;28;20765;-67
2022/03/06 07:26:25;;;;;;;20.20;12.10;;;2.40;99.90;;;;;;4972336;28;20203;-67
2022/03/06 07:28:50;;;;;;;18.63;12.37;;;2.70;99.90;;;;;;4973884;28;20243;-67
2022/03/06 07:31:16;;;;;;;20.97;13.90;;;2.80;99.90;;;;;;4973807;28;20239;-67
2022/03/06 07:33:41;;;;;;;20.73;13.90;;;3.10;99.90;;;;;;4973921;28;20705;-67
2022/03/06 07:36:07;;;;;;;25.20;12.87;;;3.10;99.90;;;;;;4971552;28;20215;-66
2022/03/06 07:38:32;;;;;;;19.53;12.97;;;3.20;99.90;;;;;;4973271;28;20235;-66
2022/03/06 07:40:58;;;;;;;18.03;13.20;;;3.40;99.90;;;;;;4973411;28;20231;-66
2022/03/06 07:43:23;;;;;;;25.07;15.30;;;3.60;99.90;;;;;;4973547;28;20669;-66
2022/03/06 07:45:49;;;;;;;22.60;16.13;;;3.70;99.90;;;;;;4972769;28;20200;-66
2022/03/06 07:48:14;;;;;;;22.93;16.60;;;3.90;99.90;;;;;;4973079;28;20227;-66
2022/03/06 07:50:40;;;;;;;23.60;17.17;;;3.90;99.90;;;;;;4973615;28;20597;-66
2022/03/06 07:53:06;;;;;;;24.47;16.70;;;4.20;99.90;;;;;;4973374;28;20172;-67
2022/03/06 07:55:31;;;;;;;24.30;15.57;;;4.50;99.90;;;;;;4972666;28;20275;-66
2022/03/06 07:57:57;;;;;;;24.70;17.53;;;4.60;99.90;;;;;;4972982;28;20903;-67
2022/03/06 08:00:22;;;;;;;20.30;16.40;;;4.80;99.90;;;;;;4973260;28;20211;-66
2022/03/06 08:02:48;;;;;;;21.40;14.60;;;4.90;99.90;;;;;;4973123;28;20262;-66
2022/03/06 08:05:13;;;;;;;20.60;14.10;;;4.80;99.90;;;;;;4971541;28;20606;-67
2022/03/06 08:07:39;;;;;;;19.23;12.50;;;5.00;99.90;;;;;;4973085;28;20176;-66
2022/03/06 08:10:06;;;;;;;16.80;12.90;;;5.20;99.90;;;;;;4972867;28;20215;-66
2022/03/06 08:12:31;;;;;;;23.30;13.80;;;5.30;99.10;;;;;;4972529;28;20559;-65
2022/03/06 08:14:57;;;;;;;22.07;14.47;;;5.40;99.00;;;;;;4972752;28;20462;-66
2022/03/06 08:17:22;;;;;;;20.07;14.27;;;5.70;98.20;;;;;;4971891;28;20176;-67
2022/03/06 08:19:48;;;;;;;18.77;14.70;;;6.00;97.70;;;;;;4972543;28;20172;-66
2022/03/06 08:22:14;;;;;;;19.63;14.43;;;6.30;96.50;;;;;;4972806;28;20179;-66
2022/03/06 08:24:39;;;;;;;19.57;14.53;;;6.30;95.80;;;;;;4972597;28;20184;-66
2022/03/06 08:27:05;;;;;;;17.90;13.87;;;6.40;95.50;;;;;;4972113;28;20176;-66
2022/03/06 08:29:31;;;;;;;20.50;14.80;;;6.50;94.70;;;;;;4972707;28;20597;-66
2022/03/06 08:31:56;;;;;;;19.37;15.10;;;6.60;94.80;;;;;;4972710;28;20207;-66
2022/03/06 08:34:22;;;;;;;20.13;14.67;;;6.90;94.00;;;;;;4973001;28;20188;-66
2022/03/06 08:36:47;;;;;;;17.87;14.27;;;7.00;93.10;;;;;;4972002;28;20220;-67
2022/03/06 08:39:13;;;;;;;19.93;14.90;;;7.20;92.70;;;;;;4972944;28;20207;-66
2022/03/06 08:41:39;;;;;;;18.77;14.40;;;7.50;91.80;;;;;;4972272;28;20275;-67
2022/03/06 08:44:05;;;;;;;24.07;15.93;;;7.90;91.30;;;;;;4972462;28;20176;-66
2022/03/06 08:46:30;;;;;;;20.70;15.47;;;8.40;90.20;;;;;;4972084;28;20211;-66
2022/03/06 08:48:55;;;;;;;17.67;14.60;;;8.50;88.00;;;;;;4972746;28;20176;-67
2022/03/06 08:51:21;;;;;;;18.50;16.13;;;8.60;86.90;;;;;;4972602;28;20662;-66
2022/03/06 08:53:47;;;;;;;20.53;14.60;;;8.60;85.10;;;;;;4973880;28;20180;-67
2022/03/06 08:56:12;;;;;;;16.87;13.93;;;8.80;84.30;;;;;;4972805;28;20611;-67
2022/03/06 08:58:38;;;;;;;19.13;14.70;;;9.30;81.60;;;;;;4972688;28;20373;-67
2022/03/06 09:01:03;;;;;;;15.27;13.57;;;9.60;80.20;;;;;;4972472;28;20177;-67
2022/03/06 09:03:29;;;;;;;16.97;14.40;;;9.30;75.00;;;;;;4972515;28;20557;-67
2022/03/06 09:05:55;;;;;;;15.33;13.80;;;9.20;75.60;;;;;;4971677;28;20192;-67
2022/03/06 09:08:20;;;;;;;17.00;12.97;;;9.10;75.70;;;;;;4972121;28;20263;-66
2022/03/06 09:10:54;;;;;;;14.10;11.40;;;9.40;74.00;;;;;;4972838;28;20228;-67
2022/03/06 09:13:20;;;;;;;17.27;10.80;;;9.10;71.90;;;;;;4972697;28;20665;-66
2022/03/06 09:15:46;;;;;;;13.10;11.60;;;8.90;70.90;;;;;;4971747;28;20455;-66
2022/03/06 09:18:11;;;;;;;14.80;12.43;;;9.10;70.30;;;;;;4976061;28;20195;-66
2022/03/06 09:20:37;;;;;;;15.30;12.50;;;8.90;70.50;;;;;;4974198;28;20187;-65
2022/03/06 09:23:05;;;;;;;16.50;13.20;;;9.00;71.40;;;;;;4975561;28;20172;-66
2022/03/06 09:25:32;;;;;;;17.53;13.33;;;9.40;69.30;;;;;;4975237;28;20276;-66
2022/03/06 09:28:01;;;;;;;15.13;13.07;;;10.20;67.90;;;;;;4975885;28;20459;-66
2022/03/06 09:30:27;;;;;;;17.10;14.10;;;10.50;65.80;;;;;;4975732;28;20435;-67
2022/03/06 09:32:53;;;;;;;16.43;13.47;;;11.50;65.10;;;;;;4975950;28;20445;-66
2022/03/06 09:35:18;;;;;;;14.87;12.10;;;12.00;61.10;;;;;;4974921;28;20291;-66
2022/03/06 09:37:44;;;;;;;14.97;13.47;;;11.30;59.30;;;;;;4975914;28;20478;-66
2022/03/06 09:40:10;;;;;;;15.37;12.33;;;11.20;60.30;;;;;;4975724;28;20180;-66
2022/03/06 09:42:36;;;;;;;18.67;15.40;;;11.00;59.60;;;;;;4975574;28;20694;-67
2022/03/06 09:45:08;;;;;;;17.27;13.83;;;11.60;58.60;;;;;;4974686;28;20534;-66
2022/03/06 09:47:34;;;;;;;14.67;12.80;;;11.40;58.20;;;;;;4975820;28;20235;-67
2022/03/06 09:50:01;;;;;;;14.33;12.77;;;11.40;58.40;;;;;;4975299;28;20431;-67
2022/03/06 09:52:27;;;;;;;15.40;13.80;;;11.90;57.60;;;;;;4975205;28;20458;-67
2022/03/06 09:54:53;;;;;;;16.43;14.10;;;12.50;56.00;;;;;;4975265;28;20462;-67
2022/03/06 09:57:19;;;;;;;15.00;13.40;;;12.50;55.90;;;;;;4974785;28;20800;-66
2022/03/06 09:59:45;;;;;;;15.73;14.03;;;11.90;56.10;;;;;;4975321;28;20185;-66
2022/03/06 10:02:11;;;;;;;15.93;13.60;;;12.30;55.50;;;;;;4975499;28;20973;-67
2022/03/06 10:04:37;;;;;;;17.27;14.67;;;12.80;54.90;;;;;;4975157;28;20436;-66
2022/03/06 10:07:03;;;;;;;15.27;13.60;;;12.00;55.20;;;;;;4974355;28;20436;-66
2022/03/06 10:09:29;;;;;;;15.13;13.53;;;11.60;56.70;;;;;;4975017;28;20191;-66
2022/03/06 10:11:55;;;;;;;16.63;14.80;;;12.20;54.70;;;;;;4975093;28;20204;-67
2022/03/06 10:14:38;;;;;;;17.20;13.93;;;12.10;55.30;;;;;;4975099;28;20494;-67
2022/03/06 10:17:19;;;;;;;16.47;14.77;;;13.20;54.50;;;;;;4974222;28;20594;-66
2022/03/06 10:19:53;;;;;;;17.27;14.63;;;12.60;53.30;;;;;;4974884;28;20971;-66
2022/03/06 10:22:20;;;;;;;14.17;12.67;;;11.00;53.80;;;;;;4974631;28;20441;-66
2022/03/06 10:24:51;;;;;;;17.70;13.57;;;9.90;55.30;;;;;;4975005;28;20431;-66
2022/03/06 10:27:44;;;;;;;13.87;12.00;;;8.80;56.50;;;;;;4974020;28;20533;-66
2022/03/06 10:30:28;;;;;;;15.73;11.87;;;8.00;58.00;;;;;;4974678;28;20447;-66
2022/03/06 10:32:57;;;;;;;14.60;11.70;;;7.50;59.00;;;;;;4974544;28;20440;-66
2022/03/06 10:35:34;;;;;;;16.40;11.93;;;7.30;59.80;;;;;;4974283;28;20987;-67
2022/03/06 10:38:00;;;;;;;18.30;12.87;;;6.90;60.70;;;;;;4974474;28;20447;-66
2022/03/06 10:40:37;;;;;;;19.23;14.23;;;6.70;61.90;;;;;;4974478;28;20431;-68
2022/03/06 10:43:26;;;;;;;15.50;11.67;;;6.80;63.20;;;;;;4974574;28;20431;-66
2022/03/06 10:46:05;;;;;;;17.70;12.57;;;6.80;62.80;;;;;;4973569;28;20459;-67
2022/03/06 10:48:30;;;;;;;15.17;13.30;;;6.80;62.50;;;;;;4960975;28;20431;-66
2022/03/06 10:51:01;;;;;;;14.83;12.00;;;6.90;61.10;;;;;;4974194;28;20474;-66
2022/03/06 10:53:30;;;;;;;14.70;10.70;;;6.80;60.80;;;;;;4974492;28;20180;-67
2022/03/06 10:56:13;;;;;;;14.57;11.20;;;7.00;60.60;;;;;;4973188;28;20555;-67
2022/03/06 10:58:44;;;;;;;13.90;10.97;;;7.20;59.70;;;;;;4974465;28;20478;-67
2022/03/06 11:01:10;;;;;;;17.43;14.07;;;7.40;58.90;;;;;;4974355;28;20443;-67
2022/03/06 11:03:36;;;;;;;15.23;12.30;;;7.20;58.40;;;;;;4974295;28;20436;-67
2022/03/06 11:06:04;;;;;;;15.93;12.10;;;6.90;59.40;;;;;;4973265;28;20470;-66
2022/03/06 11:08:30;;;;;;;15.00;12.20;;;6.80;60.70;;;;;;4973877;28;20950;-67
2022/03/06 11:10:56;;;;;;;16.67;11.90;;;7.10;61.40;;;;;;4973851;28;20452;-67
2022/03/06 11:13:23;;;;;;;13.13;11.43;;;8.00;59.80;;;;;;4974025;28;20441;-68
2022/03/06 11:15:49;;;;;;;15.47;12.60;;;9.20;58.90;;;;;;4973107;28;20455;-69
2022/03/06 11:18:15;;;;;;;15.40;13.40;;;11.50;56.40;;;;;;4973732;28;20442;-67
2022/03/06 11:20:44;;;;;;;15.77;13.80;;;13.50;52.00;;;;;;4973876;28;20428;-68
2022/03/06 11:23:32;;;;;;;16.57;14.97;;;14.50;49.60;;;;;;4973775;28;20438;-67
2022/03/06 11:26:08;;;;;;;17.70;15.93;;;15.20;48.40;;;;;;4973183;28;21003;-67
2022/03/06 11:28:54;;;;;;;18.80;16.00;;;15.70;45.50;;;;;;4973959;28;20436;-68
2022/03/06 11:31:22;;;;;;;14.90;12.70;;;13.40;46.30;;;;;;4973036;28;20462;-67
2022/03/06 11:34:03;;;;;;;16.00;13.13;;;11.70;48.00;;;;;;4974008;28;20519;-67
2022/03/06 11:36:30;;;;;;;16.40;13.63;;;10.40;49.90;;;;;;4958996;28;20613;-67
2022/03/06 11:38:56;;;;;;;15.60;13.30;;;9.70;51.70;;;;;;4973053;28;20838;-67
2022/03/06 11:41:25;;;;;;;14.00;11.57;;;9.10;52.60;;;;;;4973333;28;20811;-67
2022/03/06 11:43:51;;;;;;;15.60;12.60;;;9.20;52.90;;;;;;4973282;28;20446;-67
2022/03/06 11:46:24;;;;;;;14.40;12.60;;;9.90;52.50;;;;;;4972645;28;20467;-67
2022/03/06 11:48:50;;;;;;;15.00;12.77;;;10.90;51.40;;;;;;4973511;28;20439;-67
2022/03/06 11:51:19;;;;;;;14.30;12.87;;;13.10;48.70;;;;;;4973278;28;20463;-68
2022/03/06 11:54:13;;;;;;;16.57;12.60;;;14.60;46.00;;;;;;4972095;28;20179;-67
2022/03/06 11:56:40;;;;;;;13.63;12.33;;;16.80;42.70;;;;;;4953556;28;20929;-67
2022/03/06 11:59:24;;;;;;;16.00;13.77;;;17.10;40.40;;;;;;4964140;28;20432;-67
2022/03/06 12:01:52;;;;;;;14.33;12.77;;;16.30;40.80;;;;;;4973323;28;20442;-67
2022/03/06 12:04:19;;;;;;;14.47;12.90;;;15.00;41.20;;;;;;4973184;28;20511;-67
2022/03/06 12:06:46;;;;;;;15.30;13.77;;;13.40;42.40;;;;;;4972332;28;20455;-67
2022/03/06 12:09:16;;;;;;;14.40;12.90;;;12.60;44.10;;;;;;4972882;28;20522;-67
2022/03/06 12:11:42;;;;;;;13.90;12.60;;;14.20;43.40;;;;;;4972947;28;20478;-67
2022/03/06 12:14:16;;;;;;;15.77;13.93;;;16.10;40.60;;;;;;4973084;28;20447;-68
2022/03/06 12:17:11;;;;;;;14.90;13.37;;;18.60;38.40;;;;;;4972500;28;20478;-68
2022/03/06 12:19:43;;;;;;;14.37;12.87;;;18.20;35.30;;;;;;4968218;28;20439;-68
2022/03/06 12:22:19;;;;;;;16.10;13.40;;;17.70;36.80;;;;;;4973081;28;20423;-68
2022/03/06 12:24:50;;;;;;;13.73;12.50;;;18.50;36.70;;;;;;4972781;28;20435;-68
2022/03/06 12:27:18;;;;;;;13.90;12.60;;;18.70;34.90;;;;;;4972117;28;20514;-67
2022/03/06 12:29:50;;;;;;;13.70;12.40;;;17.50;34.50;;;;;;4972871;28;20439;-68